sensor_id;sensor_type;location;lat;lon;timestamp;P1;durP1;ratioP1;P2;durP2;ratioP2
49237;SDS011;35069;47.906;1.892;2022-12-11T00:01:24;27.40;;;15.13;;
49237;SDS011;35069;47.906;1.892;2022-12-11T00:03:50;27.30;;;15.45;;
49237;SDS011;35069;47.906;1.892;2022-12-11T00:06:18;30.02;;;16.75;;
49237;SDS011;35069;47.906;1.892;2022-12-11T00:08:45;30.80;;;18.63;;
49237;SDS011;35069;47.906;1.892;2022-12-11T00:11:14;29.73;;;16.75;;
49237;SDS011;35069;47.906;1.892;2022-12-11T00:13:40;31.45;;;17.02;;
49237;SDS011;35069;47.906;1.892;2022-12-11T00:16:06;29.85;;;17.98;;
49237;SDS011;35069;47.906;1.892;2022-12-11T00:18:32;31.67;;;16.95;;
49237;SDS011;35069;47.906;1.892;2022-12-11T00:21:01;32.10;;;17.77;;
49237;SDS011;35069;47.906;1.892;2022-12-11T00:23:31;30.95;;;17.85;;
49237;SDS011;35069;47.906;1.892;2022-12-11T00:25:59;27.55;;;17.02;;
49237;SDS011;35069;47.906;1.892;2022-12-11T00:28:25;32.22;;;17.65;;
49237;SDS011;35069;47.906;1.892;2022-12-11T00:30:50;35.47;;;19.20;;
49237;SDS011;35069;47.906;1.892;2022-12-11T00:33:16;31.08;;;16.05;;
49237;SDS011;35069;47.906;1.892;2022-12-11T00:35:42;26.00;;;16.73;;
49237;SDS011;35069;47.906;1.892;2022-12-11T00:38:19;28.77;;;16.83;;
49237;SDS011;35069;47.906;1.892;2022-12-11T00:40:46;31.52;;;16.50;;
49237;SDS011;35069;47.906;1.892;2022-12-11T00:43:12;31.10;;;16.98;;
49237;SDS011;35069;47.906;1.892;2022-12-11T00:45:42;31.92;;;18.05;;
49237;SDS011;35069;47.906;1.892;2022-12-11T00:48:10;30.85;;;17.60;;
49237;SDS011;35069;47.906;1.892;2022-12-11T00:50:37;35.17;;;18.02;;
49237;SDS011;35069;47.906;1.892;2022-12-11T00:53:04;31.05;;;17.80;;
49237;SDS011;35069;47.906;1.892;2022-12-11T00:55:30;33.08;;;17.63;;
49237;SDS011;35069;47.906;1.892;2022-12-11T00:58:00;29.73;;;18.77;;
49237;SDS011;35069;47.906;1.892;2022-12-11T01:00:25;29.80;;;18.70;;
49237;SDS011;35069;47.906;1.892;2022-12-11T01:02:51;30.73;;;18.08;;
49237;SDS011;35069;47.906;1.892;2022-12-11T01:05:16;28.85;;;17.77;;
49237;SDS011;35069;47.906;1.892;2022-12-11T01:07:42;32.33;;;18.40;;
49237;SDS011;35069;47.906;1.892;2022-12-11T01:10:09;32.47;;;17.48;;
49237;SDS011;35069;47.906;1.892;2022-12-11T01:12:49;33.22;;;16.25;;
49237;SDS011;35069;47.906;1.892;2022-12-11T01:15:20;33.22;;;18.05;;
49237;SDS011;35069;47.906;1.892;2022-12-11T01:17:47;34.65;;;18.85;;
49237;SDS011;35069;47.906;1.892;2022-12-11T01:20:13;33.65;;;18.98;;
49237;SDS011;35069;47.906;1.892;2022-12-11T01:22:40;34.45;;;18.80;;
49237;SDS011;35069;47.906;1.892;2022-12-11T01:25:06;34.72;;;19.38;;
49237;SDS011;35069;47.906;1.892;2022-12-11T01:27:34;32.15;;;18.75;;
49237;SDS011;35069;47.906;1.892;2022-12-11T01:30:00;31.25;;;17.75;;
49237;SDS011;35069;47.906;1.892;2022-12-11T01:32:26;34.30;;;19.15;;
49237;SDS011;35069;47.906;1.892;2022-12-11T01:34:52;41.83;;;20.67;;
49237;SDS011;35069;47.906;1.892;2022-12-11T01:37:18;35.63;;;18.08;;
49237;SDS011;35069;47.906;1.892;2022-12-11T01:39:45;30.35;;;15.98;;
49237;SDS011;35069;47.906;1.892;2022-12-11T01:42:14;36.60;;;19.13;;
49237;SDS011;35069;47.906;1.892;2022-12-11T01:47:07;30.42;;;16.30;;
49237;SDS011;35069;47.906;1.892;2022-12-11T01:49:33;43.45;;;16.13;;
49237;SDS011;35069;47.906;1.892;2022-12-11T01:52:17;29.58;;;14.98;;
49237;SDS011;35069;47.906;1.892;2022-12-11T01:54:45;30.60;;;15.40;;
49237;SDS011;35069;47.906;1.892;2022-12-11T01:57:12;40.33;;;14.65;;
49237;SDS011;35069;47.906;1.892;2022-12-11T01:59:40;56.28;;;16.38;;
49237;SDS011;35069;47.906;1.892;2022-12-11T02:02:19;39.15;;;14.52;;
49237;SDS011;35069;47.906;1.892;2022-12-11T02:04:48;27.90;;;13.25;;
49237;SDS011;35069;47.906;1.892;2022-12-11T02:07:14;25.73;;;12.23;;
49237;SDS011;35069;47.906;1.892;2022-12-11T02:09:41;28.98;;;13.73;;
49237;SDS011;35069;47.906;1.892;2022-12-11T02:12:18;23.80;;;13.63;;
49237;SDS011;35069;47.906;1.892;2022-12-11T02:15:02;28.88;;;13.68;;
49237;SDS011;35069;47.906;1.892;2022-12-11T02:20:33;35.63;;;12.88;;
49237;SDS011;35069;47.906;1.892;2022-12-11T02:31:12;33.10;;;15.55;;
49237;SDS011;35069;47.906;1.892;2022-12-11T02:33:45;30.45;;;11.88;;
49237;SDS011;35069;47.906;1.892;2022-12-11T02:36:23;35.42;;;12.45;;
49237;SDS011;35069;47.906;1.892;2022-12-11T02:38:52;32.90;;;11.60;;
49237;SDS011;35069;47.906;1.892;2022-12-11T02:41:20;27.23;;;12.00;;
49237;SDS011;35069;47.906;1.892;2022-12-11T02:43:48;41.78;;;13.50;;
49237;SDS011;35069;47.906;1.892;2022-12-11T02:46:15;28.45;;;12.70;;
49237;SDS011;35069;47.906;1.892;2022-12-11T02:48:42;28.33;;;13.57;;
49237;SDS011;35069;47.906;1.892;2022-12-11T02:51:10;39.50;;;13.38;;
49237;SDS011;35069;47.906;1.892;2022-12-11T02:53:39;31.85;;;13.55;;
49237;SDS011;35069;47.906;1.892;2022-12-11T02:56:19;41.70;;;14.43;;
49237;SDS011;35069;47.906;1.892;2022-12-11T02:58:53;34.58;;;14.65;;
49237;SDS011;35069;47.906;1.892;2022-12-11T03:03:49;40.70;;;16.65;;
49237;SDS011;35069;47.906;1.892;2022-12-11T03:06:16;53.00;;;21.38;;
49237;SDS011;35069;47.906;1.892;2022-12-11T03:08:44;42.60;;;17.30;;
49237;SDS011;35069;47.906;1.892;2022-12-11T03:11:10;24.27;;;12.50;;
49237;SDS011;35069;47.906;1.892;2022-12-11T03:13:37;22.20;;;11.63;;
49237;SDS011;35069;47.906;1.892;2022-12-11T03:18:48;25.77;;;11.88;;
49237;SDS011;35069;47.906;1.892;2022-12-11T03:21:23;38.05;;;11.90;;
49237;SDS011;35069;47.906;1.892;2022-12-11T03:24:03;30.95;;;12.82;;
49237;SDS011;35069;47.906;1.892;2022-12-11T03:26:30;27.45;;;11.65;;
49237;SDS011;35069;47.906;1.892;2022-12-11T03:29:08;28.52;;;12.63;;
49237;SDS011;35069;47.906;1.892;2022-12-11T03:31:47;25.52;;;10.73;;
49237;SDS011;35069;47.906;1.892;2022-12-11T03:34:28;25.23;;;11.60;;
49237;SDS011;35069;47.906;1.892;2022-12-11T03:37:02;50.88;;;13.88;;
49237;SDS011;35069;47.906;1.892;2022-12-11T03:39:30;24.85;;;12.32;;
49237;SDS011;35069;47.906;1.892;2022-12-11T03:41:58;34.72;;;12.25;;
49237;SDS011;35069;47.906;1.892;2022-12-11T03:44:27;31.67;;;13.95;;
49237;SDS011;35069;47.906;1.892;2022-12-11T03:46:54;35.15;;;12.57;;
49237;SDS011;35069;47.906;1.892;2022-12-11T03:49:25;33.58;;;13.85;;
49237;SDS011;35069;47.906;1.892;2022-12-11T03:51:53;37.47;;;10.65;;
49237;SDS011;35069;47.906;1.892;2022-12-11T03:54:21;46.65;;;15.40;;
49237;SDS011;35069;47.906;1.892;2022-12-11T03:56:49;31.95;;;13.82;;
49237;SDS011;35069;47.906;1.892;2022-12-11T03:59:17;31.55;;;14.88;;
49237;SDS011;35069;47.906;1.892;2022-12-11T04:01:43;39.17;;;14.00;;
49237;SDS011;35069;47.906;1.892;2022-12-11T04:04:09;27.77;;;13.63;;
49237;SDS011;35069;47.906;1.892;2022-12-11T04:06:34;30.27;;;14.60;;
49237;SDS011;35069;47.906;1.892;2022-12-11T04:09:00;30.35;;;14.00;;
49237;SDS011;35069;47.906;1.892;2022-12-11T04:11:26;32.28;;;14.38;;
49237;SDS011;35069;47.906;1.892;2022-12-11T04:14:03;22.02;;;13.07;;
49237;SDS011;35069;47.906;1.892;2022-12-11T04:16:50;26.92;;;12.88;;
49237;SDS011;35069;47.906;1.892;2022-12-11T04:19:16;27.77;;;12.75;;
49237;SDS011;35069;47.906;1.892;2022-12-11T04:22:00;28.10;;;12.73;;
49237;SDS011;35069;47.906;1.892;2022-12-11T04:24:48;25.95;;;13.27;;
49237;SDS011;35069;47.906;1.892;2022-12-11T04:27:14;29.35;;;13.65;;
49237;SDS011;35069;47.906;1.892;2022-12-11T04:30:00;27.25;;;14.32;;
49237;SDS011;35069;47.906;1.892;2022-12-11T04:32:27;28.13;;;12.70;;
49237;SDS011;35069;47.906;1.892;2022-12-11T04:34:53;27.40;;;13.57;;
49237;SDS011;35069;47.906;1.892;2022-12-11T04:37:18;27.13;;;14.23;;
49237;SDS011;35069;47.906;1.892;2022-12-11T04:39:44;25.13;;;12.93;;
49237;SDS011;35069;47.906;1.892;2022-12-11T04:42:09;29.90;;;14.52;;
49237;SDS011;35069;47.906;1.892;2022-12-11T04:44:35;26.15;;;12.55;;
49237;SDS011;35069;47.906;1.892;2022-12-11T04:47:01;30.73;;;12.80;;
49237;SDS011;35069;47.906;1.892;2022-12-11T04:49:26;26.60;;;12.18;;
49237;SDS011;35069;47.906;1.892;2022-12-11T04:51:52;22.95;;;12.85;;
49237;SDS011;35069;47.906;1.892;2022-12-11T04:54:17;25.70;;;12.40;;
49237;SDS011;35069;47.906;1.892;2022-12-11T04:56:43;28.25;;;13.00;;
49237;SDS011;35069;47.906;1.892;2022-12-11T04:59:08;28.92;;;13.65;;
49237;SDS011;35069;47.906;1.892;2022-12-11T05:01:34;31.98;;;14.38;;
49237;SDS011;35069;47.906;1.892;2022-12-11T05:03:59;25.45;;;13.45;;
49237;SDS011;35069;47.906;1.892;2022-12-11T05:06:25;30.60;;;15.05;;
49237;SDS011;35069;47.906;1.892;2022-12-11T05:08:51;28.40;;;12.85;;
49237;SDS011;35069;47.906;1.892;2022-12-11T05:11:17;32.17;;;15.07;;
49237;SDS011;35069;47.906;1.892;2022-12-11T05:13:43;32.53;;;14.38;;
49237;SDS011;35069;47.906;1.892;2022-12-11T05:16:09;29.73;;;14.30;;
49237;SDS011;35069;47.906;1.892;2022-12-11T05:18:36;34.55;;;16.05;;
49237;SDS011;35069;47.906;1.892;2022-12-11T05:21:03;36.50;;;16.77;;
49237;SDS011;35069;47.906;1.892;2022-12-11T05:23:34;32.42;;;14.63;;
49237;SDS011;35069;47.906;1.892;2022-12-11T05:26:02;28.20;;;13.88;;
49237;SDS011;35069;47.906;1.892;2022-12-11T05:28:30;36.85;;;16.90;;
49237;SDS011;35069;47.906;1.892;2022-12-11T05:30:58;31.83;;;15.60;;
49237;SDS011;35069;47.906;1.892;2022-12-11T05:33:26;35.63;;;15.45;;
49237;SDS011;35069;47.906;1.892;2022-12-11T05:35:52;29.85;;;15.60;;
49237;SDS011;35069;47.906;1.892;2022-12-11T05:38:18;28.83;;;14.77;;
49237;SDS011;35069;47.906;1.892;2022-12-11T05:40:44;31.65;;;15.25;;
49237;SDS011;35069;47.906;1.892;2022-12-11T05:43:18;33.47;;;15.80;;
49237;SDS011;35069;47.906;1.892;2022-12-11T05:45:44;32.47;;;15.95;;
49237;SDS011;35069;47.906;1.892;2022-12-11T05:48:10;31.92;;;16.00;;
49237;SDS011;35069;47.906;1.892;2022-12-11T05:50:35;32.63;;;15.80;;
49237;SDS011;35069;47.906;1.892;2022-12-11T05:53:01;34.72;;;16.25;;
49237;SDS011;35069;47.906;1.892;2022-12-11T05:55:28;32.90;;;14.82;;
49237;SDS011;35069;47.906;1.892;2022-12-11T05:57:54;34.78;;;15.23;;
49237;SDS011;35069;47.906;1.892;2022-12-11T06:00:19;29.45;;;14.45;;
49237;SDS011;35069;47.906;1.892;2022-12-11T06:02:45;30.35;;;14.10;;
49237;SDS011;35069;47.906;1.892;2022-12-11T06:05:11;29.27;;;12.90;;
49237;SDS011;35069;47.906;1.892;2022-12-11T06:07:37;28.35;;;14.70;;
49237;SDS011;35069;47.906;1.892;2022-12-11T06:10:02;28.23;;;13.45;;
49237;SDS011;35069;47.906;1.892;2022-12-11T06:12:28;28.35;;;13.52;;
49237;SDS011;35069;47.906;1.892;2022-12-11T06:14:55;26.80;;;14.60;;
49237;SDS011;35069;47.906;1.892;2022-12-11T06:17:20;22.70;;;12.90;;
49237;SDS011;35069;47.906;1.892;2022-12-11T06:19:46;28.50;;;14.07;;
49237;SDS011;35069;47.906;1.892;2022-12-11T06:22:11;25.83;;;13.25;;
49237;SDS011;35069;47.906;1.892;2022-12-11T06:24:37;26.60;;;14.10;;
49237;SDS011;35069;47.906;1.892;2022-12-11T06:27:02;27.05;;;15.20;;
49237;SDS011;35069;47.906;1.892;2022-12-11T06:29:28;25.92;;;14.88;;
49237;SDS011;35069;47.906;1.892;2022-12-11T06:31:54;24.52;;;13.70;;
49237;SDS011;35069;47.906;1.892;2022-12-11T06:34:19;26.65;;;14.60;;
49237;SDS011;35069;47.906;1.892;2022-12-11T06:36:45;30.00;;;14.93;;
49237;SDS011;35069;47.906;1.892;2022-12-11T06:39:10;28.35;;;13.02;;
49237;SDS011;35069;47.906;1.892;2022-12-11T06:41:36;24.80;;;13.40;;
49237;SDS011;35069;47.906;1.892;2022-12-11T06:44:02;23.20;;;12.65;;
49237;SDS011;35069;47.906;1.892;2022-12-11T06:46:28;27.85;;;13.70;;
49237;SDS011;35069;47.906;1.892;2022-12-11T06:50:01;25.38;;;12.40;;
49237;SDS011;35069;47.906;1.892;2022-12-11T06:52:27;28.70;;;14.15;;
49237;SDS011;35069;47.906;1.892;2022-12-11T06:54:53;21.70;;;12.88;;
49237;SDS011;35069;47.906;1.892;2022-12-11T06:57:20;25.20;;;13.05;;
49237;SDS011;35069;47.906;1.892;2022-12-11T06:59:46;22.67;;;13.00;;
49237;SDS011;35069;47.906;1.892;2022-12-11T07:02:15;21.05;;;11.35;;
49237;SDS011;35069;47.906;1.892;2022-12-11T07:04:42;26.15;;;12.80;;
49237;SDS011;35069;47.906;1.892;2022-12-11T07:07:09;21.05;;;11.50;;
49237;SDS011;35069;47.906;1.892;2022-12-11T07:09:35;26.58;;;13.40;;
49237;SDS011;35069;47.906;1.892;2022-12-11T07:12:02;23.33;;;12.60;;
49237;SDS011;35069;47.906;1.892;2022-12-11T07:14:29;24.92;;;13.63;;
49237;SDS011;35069;47.906;1.892;2022-12-11T07:16:55;21.10;;;12.30;;
49237;SDS011;35069;47.906;1.892;2022-12-11T07:19:21;25.15;;;13.93;;
49237;SDS011;35069;47.906;1.892;2022-12-11T07:21:47;28.80;;;15.02;;
49237;SDS011;35069;47.906;1.892;2022-12-11T07:24:13;22.23;;;13.10;;
49237;SDS011;35069;47.906;1.892;2022-12-11T07:26:38;25.40;;;13.05;;
49237;SDS011;35069;47.906;1.892;2022-12-11T07:29:04;30.40;;;15.70;;
49237;SDS011;35069;47.906;1.892;2022-12-11T07:31:29;26.25;;;13.82;;
49237;SDS011;35069;47.906;1.892;2022-12-11T07:33:56;29.42;;;14.05;;
49237;SDS011;35069;47.906;1.892;2022-12-11T07:36:23;26.27;;;14.18;;
49237;SDS011;35069;47.906;1.892;2022-12-11T07:38:49;24.42;;;13.15;;
49237;SDS011;35069;47.906;1.892;2022-12-11T07:41:15;24.95;;;15.23;;
49237;SDS011;35069;47.906;1.892;2022-12-11T07:43:41;27.15;;;14.90;;
49237;SDS011;35069;47.906;1.892;2022-12-11T07:46:17;28.15;;;13.60;;
49237;SDS011;35069;47.906;1.892;2022-12-11T07:48:46;23.58;;;12.90;;
49237;SDS011;35069;47.906;1.892;2022-12-11T07:51:13;27.25;;;14.30;;
49237;SDS011;35069;47.906;1.892;2022-12-11T07:53:44;26.17;;;12.82;;
49237;SDS011;35069;47.906;1.892;2022-12-11T07:56:11;25.10;;;13.45;;
49237;SDS011;35069;47.906;1.892;2022-12-11T07:58:37;25.85;;;14.05;;
49237;SDS011;35069;47.906;1.892;2022-12-11T08:01:03;27.52;;;14.48;;
49237;SDS011;35069;47.906;1.892;2022-12-11T08:03:40;24.77;;;15.23;;
49237;SDS011;35069;47.906;1.892;2022-12-11T08:06:06;30.17;;;15.23;;
49237;SDS011;35069;47.906;1.892;2022-12-11T08:08:33;26.05;;;14.93;;
49237;SDS011;35069;47.906;1.892;2022-12-11T08:11:02;29.45;;;16.65;;
49237;SDS011;35069;47.906;1.892;2022-12-11T08:13:29;32.92;;;16.55;;
49237;SDS011;35069;47.906;1.892;2022-12-11T08:15:55;27.55;;;14.48;;
49237;SDS011;35069;47.906;1.892;2022-12-11T08:18:20;33.75;;;15.93;;
49237;SDS011;35069;47.906;1.892;2022-12-11T08:20:46;27.20;;;16.15;;
49237;SDS011;35069;47.906;1.892;2022-12-11T08:23:12;26.95;;;15.82;;
49237;SDS011;35069;47.906;1.892;2022-12-11T08:25:37;24.13;;;14.23;;
49237;SDS011;35069;47.906;1.892;2022-12-11T08:28:03;24.58;;;14.05;;
49237;SDS011;35069;47.906;1.892;2022-12-11T08:30:29;32.75;;;15.05;;
49237;SDS011;35069;47.906;1.892;2022-12-11T08:32:55;23.38;;;12.55;;
49237;SDS011;35069;47.906;1.892;2022-12-11T08:35:21;25.50;;;15.05;;
49237;SDS011;35069;47.906;1.892;2022-12-11T08:37:47;25.98;;;14.80;;
49237;SDS011;35069;47.906;1.892;2022-12-11T08:40:12;25.83;;;14.52;;
49237;SDS011;35069;47.906;1.892;2022-12-11T08:42:38;28.52;;;14.18;;
49237;SDS011;35069;47.906;1.892;2022-12-11T08:45:04;26.05;;;15.10;;
49237;SDS011;35069;47.906;1.892;2022-12-11T08:47:30;26.30;;;14.63;;
49237;SDS011;35069;47.906;1.892;2022-12-11T08:49:56;32.90;;;15.63;;
49237;SDS011;35069;47.906;1.892;2022-12-11T08:52:24;25.38;;;14.95;;
49237;SDS011;35069;47.906;1.892;2022-12-11T08:54:49;24.98;;;14.57;;
49237;SDS011;35069;47.906;1.892;2022-12-11T08:57:15;30.02;;;15.13;;
49237;SDS011;35069;47.906;1.892;2022-12-11T08:59:41;24.65;;;14.38;;
49237;SDS011;35069;47.906;1.892;2022-12-11T09:02:08;28.40;;;14.57;;
49237;SDS011;35069;47.906;1.892;2022-12-11T09:04:36;24.05;;;15.02;;
49237;SDS011;35069;47.906;1.892;2022-12-11T09:07:01;29.05;;;16.13;;
49237;SDS011;35069;47.906;1.892;2022-12-11T09:09:27;20.60;;;13.02;;
49237;SDS011;35069;47.906;1.892;2022-12-11T09:11:53;26.17;;;13.35;;
49237;SDS011;35069;47.906;1.892;2022-12-11T09:14:19;30.40;;;15.38;;
49237;SDS011;35069;47.906;1.892;2022-12-11T09:16:45;27.00;;;14.73;;
49237;SDS011;35069;47.906;1.892;2022-12-11T09:19:11;29.98;;;16.75;;
49237;SDS011;35069;47.906;1.892;2022-12-11T09:21:38;27.48;;;15.10;;
49237;SDS011;35069;47.906;1.892;2022-12-11T09:24:04;27.30;;;16.40;;
49237;SDS011;35069;47.906;1.892;2022-12-11T09:26:30;29.48;;;15.68;;
49237;SDS011;35069;47.906;1.892;2022-12-11T09:28:56;27.30;;;14.70;;
49237;SDS011;35069;47.906;1.892;2022-12-11T09:31:29;27.80;;;15.77;;
49237;SDS011;35069;47.906;1.892;2022-12-11T09:33:58;28.15;;;16.10;;
49237;SDS011;35069;47.906;1.892;2022-12-11T09:36:25;32.25;;;15.98;;
49237;SDS011;35069;47.906;1.892;2022-12-11T09:38:51;30.73;;;15.43;;
49237;SDS011;35069;47.906;1.892;2022-12-11T09:41:27;26.60;;;15.68;;
49237;SDS011;35069;47.906;1.892;2022-12-11T09:46:41;29.08;;;15.70;;
49237;SDS011;35069;47.906;1.892;2022-12-11T09:49:26;29.73;;;18.08;;
49237;SDS011;35069;47.906;1.892;2022-12-11T09:52:05;33.65;;;17.08;;
49237;SDS011;35069;47.906;1.892;2022-12-11T09:54:34;37.72;;;18.13;;
49237;SDS011;35069;47.906;1.892;2022-12-11T09:57:09;25.98;;;15.52;;
49237;SDS011;35069;47.906;1.892;2022-12-11T10:02:53;33.53;;;16.05;;
49237;SDS011;35069;47.906;1.892;2022-12-11T10:08:40;26.33;;;15.77;;
49237;SDS011;35069;47.906;1.892;2022-12-11T10:13:44;30.02;;;15.48;;
49237;SDS011;35069;47.906;1.892;2022-12-11T10:18:59;25.15;;;15.55;;
49237;SDS011;35069;47.906;1.892;2022-12-11T10:21:25;24.00;;;14.20;;
49237;SDS011;35069;47.906;1.892;2022-12-11T10:23:57;27.20;;;14.98;;
49237;SDS011;35069;47.906;1.892;2022-12-11T10:26:26;21.42;;;14.40;;
49237;SDS011;35069;47.906;1.892;2022-12-11T10:28:53;26.60;;;15.45;;
49237;SDS011;35069;47.906;1.892;2022-12-11T10:31:37;25.60;;;14.32;;
49237;SDS011;35069;47.906;1.892;2022-12-11T10:34:36;22.90;;;14.75;;
49237;SDS011;35069;47.906;1.892;2022-12-11T10:37:04;24.63;;;13.45;;
49237;SDS011;35069;47.906;1.892;2022-12-11T10:39:29;26.33;;;15.20;;
49237;SDS011;35069;47.906;1.892;2022-12-11T10:41:55;26.98;;;15.75;;
49237;SDS011;35069;47.906;1.892;2022-12-11T10:44:26;26.58;;;15.82;;
49237;SDS011;35069;47.906;1.892;2022-12-11T10:47:08;24.60;;;14.32;;
49237;SDS011;35069;47.906;1.892;2022-12-11T10:49:36;27.75;;;14.30;;
49237;SDS011;35069;47.906;1.892;2022-12-11T10:52:19;21.13;;;14.00;;
49237;SDS011;35069;47.906;1.892;2022-12-11T10:54:53;24.92;;;13.07;;
49237;SDS011;35069;47.906;1.892;2022-12-11T10:57:29;25.90;;;14.32;;
49237;SDS011;35069;47.906;1.892;2022-12-11T10:59:58;24.65;;;14.73;;
49237;SDS011;35069;47.906;1.892;2022-12-11T11:04:56;24.83;;;14.57;;
49237;SDS011;35069;47.906;1.892;2022-12-11T11:07:28;29.83;;;14.50;;
49237;SDS011;35069;47.906;1.892;2022-12-11T11:12:36;26.52;;;15.45;;
49237;SDS011;35069;47.906;1.892;2022-12-11T11:15:06;27.17;;;14.40;;
49237;SDS011;35069;47.906;1.892;2022-12-11T11:17:43;22.90;;;14.68;;
49237;SDS011;35069;47.906;1.892;2022-12-11T11:20:16;24.55;;;14.63;;
49237;SDS011;35069;47.906;1.892;2022-12-11T11:22:48;23.90;;;14.75;;
49237;SDS011;35069;47.906;1.892;2022-12-11T11:27:54;24.40;;;14.13;;
49237;SDS011;35069;47.906;1.892;2022-12-11T11:30:28;21.15;;;13.77;;
49237;SDS011;35069;47.906;1.892;2022-12-11T11:33:04;16.40;;;11.48;;
49237;SDS011;35069;47.906;1.892;2022-12-11T11:35:57;20.33;;;13.25;;
49237;SDS011;35069;47.906;1.892;2022-12-11T11:38:27;28.08;;;14.05;;
49237;SDS011;35069;47.906;1.892;2022-12-11T11:43:37;20.75;;;12.52;;
49237;SDS011;35069;47.906;1.892;2022-12-11T11:46:13;19.30;;;13.10;;
49237;SDS011;35069;47.906;1.892;2022-12-11T11:51:43;24.52;;;14.05;;
49237;SDS011;35069;47.906;1.892;2022-12-11T11:57:28;21.15;;;12.05;;
49237;SDS011;35069;47.906;1.892;2022-12-11T12:00:27;18.88;;;12.82;;
49237;SDS011;35069;47.906;1.892;2022-12-11T12:02:58;21.23;;;13.68;;
49237;SDS011;35069;47.906;1.892;2022-12-11T12:05:34;21.08;;;12.35;;
49237;SDS011;35069;47.906;1.892;2022-12-11T12:16:29;21.60;;;12.60;;
49237;SDS011;35069;47.906;1.892;2022-12-11T12:19:30;19.20;;;12.00;;
49237;SDS011;35069;47.906;1.892;2022-12-11T12:22:37;33.13;;;14.10;;
49237;SDS011;35069;47.906;1.892;2022-12-11T12:30:50;18.85;;;13.13;;
49237;SDS011;35069;47.906;1.892;2022-12-11T12:33:25;18.67;;;13.65;;
49237;SDS011;35069;47.906;1.892;2022-12-11T12:35:55;17.45;;;12.02;;
49237;SDS011;35069;47.906;1.892;2022-12-11T12:44:15;18.02;;;11.38;;
49237;SDS011;35069;47.906;1.892;2022-12-11T12:49:40;16.52;;;11.38;;
49237;SDS011;35069;47.906;1.892;2022-12-11T12:52:22;18.85;;;12.10;;
49237;SDS011;35069;47.906;1.892;2022-12-11T12:54:56;19.95;;;13.05;;
49237;SDS011;35069;47.906;1.892;2022-12-11T12:57:53;19.17;;;12.23;;
49237;SDS011;35069;47.906;1.892;2022-12-11T13:00:40;17.33;;;11.45;;
49237;SDS011;35069;47.906;1.892;2022-12-11T13:03:21;18.63;;;12.25;;
49237;SDS011;35069;47.906;1.892;2022-12-11T13:06:05;18.25;;;11.50;;
49237;SDS011;35069;47.906;1.892;2022-12-11T13:11:10;21.30;;;11.30;;
49237;SDS011;35069;47.906;1.892;2022-12-11T13:13:40;18.52;;;11.25;;
49237;SDS011;35069;47.906;1.892;2022-12-11T13:16:36;17.60;;;11.70;;
49237;SDS011;35069;47.906;1.892;2022-12-11T13:21:55;20.60;;;12.32;;
49237;SDS011;35069;47.906;1.892;2022-12-11T13:24:24;23.67;;;12.45;;
49237;SDS011;35069;47.906;1.892;2022-12-11T13:26:51;20.38;;;11.93;;
49237;SDS011;35069;47.906;1.892;2022-12-11T13:29:27;21.80;;;13.05;;
49237;SDS011;35069;47.906;1.892;2022-12-11T13:34:38;19.90;;;12.00;;
49237;SDS011;35069;47.906;1.892;2022-12-11T13:37:06;19.40;;;11.73;;
49237;SDS011;35069;47.906;1.892;2022-12-11T13:45:17;17.73;;;11.88;;
49237;SDS011;35069;47.906;1.892;2022-12-11T13:47:50;21.05;;;12.50;;
49237;SDS011;35069;47.906;1.892;2022-12-11T13:50:21;21.23;;;11.35;;
49237;SDS011;35069;47.906;1.892;2022-12-11T13:52:56;18.75;;;12.00;;
49237;SDS011;35069;47.906;1.892;2022-12-11T13:55:27;22.38;;;13.90;;
49237;SDS011;35069;47.906;1.892;2022-12-11T13:57:55;24.88;;;12.70;;
49237;SDS011;35069;47.906;1.892;2022-12-11T14:00:23;19.58;;;12.05;;
49237;SDS011;35069;47.906;1.892;2022-12-11T14:02:50;19.38;;;13.57;;
49237;SDS011;35069;47.906;1.892;2022-12-11T14:05:19;22.45;;;14.10;;
49237;SDS011;35069;47.906;1.892;2022-12-11T14:10:19;23.27;;;13.57;;
49237;SDS011;35069;47.906;1.892;2022-12-11T14:13:04;26.90;;;15.10;;
49237;SDS011;35069;47.906;1.892;2022-12-11T14:18:03;24.48;;;14.05;;
49237;SDS011;35069;47.906;1.892;2022-12-11T14:20:31;19.40;;;12.48;;
49237;SDS011;35069;47.906;1.892;2022-12-11T14:25:40;21.98;;;12.88;;
49237;SDS011;35069;47.906;1.892;2022-12-11T14:28:12;24.05;;;13.25;;
49237;SDS011;35069;47.906;1.892;2022-12-11T14:30:41;25.83;;;15.60;;
49237;SDS011;35069;47.906;1.892;2022-12-11T14:33:11;23.40;;;13.30;;
49237;SDS011;35069;47.906;1.892;2022-12-11T14:35:39;24.38;;;14.10;;
49237;SDS011;35069;47.906;1.892;2022-12-11T14:38:11;27.92;;;14.07;;
49237;SDS011;35069;47.906;1.892;2022-12-11T14:40:42;25.45;;;14.43;;
49237;SDS011;35069;47.906;1.892;2022-12-11T14:43:31;28.13;;;15.10;;
49237;SDS011;35069;47.906;1.892;2022-12-11T14:46:01;28.73;;;15.57;;
49237;SDS011;35069;47.906;1.892;2022-12-11T14:48:32;28.52;;;16.42;;
49237;SDS011;35069;47.906;1.892;2022-12-11T14:51:04;29.42;;;16.63;;
49237;SDS011;35069;47.906;1.892;2022-12-11T14:53:34;32.25;;;17.70;;
49237;SDS011;35069;47.906;1.892;2022-12-11T14:56:05;30.30;;;16.95;;
49237;SDS011;35069;47.906;1.892;2022-12-11T14:58:32;29.50;;;14.98;;
49237;SDS011;35069;47.906;1.892;2022-12-11T15:01:06;26.38;;;14.77;;
49237;SDS011;35069;47.906;1.892;2022-12-11T15:03:46;29.90;;;15.43;;
49237;SDS011;35069;47.906;1.892;2022-12-11T15:06:23;28.95;;;15.90;;
49237;SDS011;35069;47.906;1.892;2022-12-11T15:08:52;31.67;;;16.40;;
49237;SDS011;35069;47.906;1.892;2022-12-11T15:11:18;29.35;;;16.75;;
49237;SDS011;35069;47.906;1.892;2022-12-11T15:14:03;29.15;;;17.23;;
49237;SDS011;35069;47.906;1.892;2022-12-11T15:16:30;30.92;;;16.08;;
49237;SDS011;35069;47.906;1.892;2022-12-11T15:18:58;30.52;;;16.20;;
49237;SDS011;35069;47.906;1.892;2022-12-11T15:21:27;28.15;;;16.88;;
49237;SDS011;35069;47.906;1.892;2022-12-11T15:23:55;32.63;;;18.23;;
49237;SDS011;35069;47.906;1.892;2022-12-11T15:26:33;29.80;;;16.60;;
49237;SDS011;35069;47.906;1.892;2022-12-11T15:29:02;31.23;;;16.83;;
49237;SDS011;35069;47.906;1.892;2022-12-11T15:31:30;34.50;;;18.60;;
49237;SDS011;35069;47.906;1.892;2022-12-11T15:33:58;33.65;;;16.10;;
49237;SDS011;35069;47.906;1.892;2022-12-11T15:36:29;35.78;;;18.63;;
49237;SDS011;35069;47.906;1.892;2022-12-11T15:38:55;31.17;;;17.58;;
49237;SDS011;35069;47.906;1.892;2022-12-11T15:41:21;31.58;;;18.00;;
49237;SDS011;35069;47.906;1.892;2022-12-11T15:43:49;31.17;;;17.88;;
49237;SDS011;35069;47.906;1.892;2022-12-11T15:46:21;29.20;;;16.67;;
49237;SDS011;35069;47.906;1.892;2022-12-11T15:48:48;29.45;;;17.10;;
49237;SDS011;35069;47.906;1.892;2022-12-11T15:51:14;23.95;;;15.30;;
49237;SDS011;35069;47.906;1.892;2022-12-11T15:53:40;29.25;;;16.08;;
49237;SDS011;35069;47.906;1.892;2022-12-11T15:56:08;30.77;;;17.55;;
49237;SDS011;35069;47.906;1.892;2022-12-11T15:58:38;30.75;;;16.75;;
49237;SDS011;35069;47.906;1.892;2022-12-11T16:01:04;28.38;;;16.27;;
49237;SDS011;35069;47.906;1.892;2022-12-11T16:03:30;29.45;;;16.35;;
49237;SDS011;35069;47.906;1.892;2022-12-11T16:05:56;36.88;;;19.80;;
49237;SDS011;35069;47.906;1.892;2022-12-11T16:08:22;35.10;;;20.02;;
49237;SDS011;35069;47.906;1.892;2022-12-11T16:10:49;36.83;;;20.08;;